Time,TemperatureF,DewpointF,PressureIn,WindDirection,WindDirectionDegrees,WindSpeedMPH,WindSpeedGustMPH,Humidity,HourlyPrecipIn,Conditions,Clouds,dailyrainin,SoftwareType,DateUTC
2013-02-23 00:04:00,38.2,29.6,29.62,SW,220,3.5,3.5,71,0.00,CLR,SKC,0.00,WeatherDisplay:10.37,2013-02-23 07:04:00,
2013-02-23 00:09:00,38.2,29.3,29.62,WSW,248,4.6,4.6,70,0.00,CLR,SKC,0.00,WeatherDisplay:10.37,2013-02-23 07:09:00,
2013-02-23 00:14:00,38.3,29.4,29.61,SW,225,5.8,5.8,70,0.00,CLR,SKC,0.00,WeatherDisplay:10.37,2013-02-23 07:14:00,
2013-02-23 00:19:00,38.2,29.3,29.62,SW,214,3.5,3.5,70,0.00,CLR,SKC,0.00,WeatherDisplay:10.37,2013-02-23 07:19:00,
2013-02-23 00:24:00,38.2,29.3,29.61,WSW,251,3.5,3.5,70,0.00,CLR,SKC,0.00,WeatherDisplay:10.37,2013-02-23 07:24:00,
2013-02-23 00:29:00,38.2,29.3,29.61,WSW,238,5.8,5.8,70,0.00,CLR,SKC,0.00,WeatherDisplay:10.37,2013-02-23 07:29:00,
2013-02-23 00:34:00,38.2,29.3,29.61,SW,227,6.9,6.9,70,0.00,CLR,SKC,0.00,WeatherDisplay:10.37,2013-02-23 07:34:00,
2013-02-23 00:39:00,38.2,29.3,29.61,WSW,252,3.5,3.5,70,0.00,CLR,SKC,0.00,WeatherDisplay:10.37,2013-02-23 07:39:00,
2013-02-23 00:44:00,38.3,29.4,29.61,SW,225,3.5,3.5,70,0.00,CLR,SKC,0.00,WeatherDisplay:10.37,2013-02-23 07:44:00,
2013-02-23 00:49:00,38.2,29.3,29.61,SW,232,4.6,4.6,70,0.00,CLR,SKC,0.00,WeatherDisplay:10.37,2013-02-23 07:49:00,
2013-02-23 00:55:00,38.2,29.3,29.61,WSW,240,4.6,4.6,70,0.00,CLR,SKC,0.00,WeatherDisplay:10.37,2013-02-23 07:55:00,
2013-02-23 01:00:00,38.2,29.3,29.61,SW,233,4.0,4.0,70,0.00,CLR,SKC,0.00,WeatherDisplay:10.37,2013-02-23 08:00:00,
2013-02-23 01:05:00,38.2,29.6,29.61,SW,226,5.8,5.8,71,0.00,CLR,SKC,0.00,WeatherDisplay:10.37,2013-02-23 08:05:00,
2013-02-23 01:10:00,38.1,29.5,29.60,WSW,237,3.5,3.5,71,0.00,CLR,SKC,0.00,WeatherDisplay:10.37,2013-02-23 08:10:00,
2013-02-23 01:15:00,38.0,29.8,29.61,WSW,251,5.8,5.8,72,0.00,CLR,SKC,0.00,WeatherDisplay:10.37,2013-02-23 08:15:00,
2013-02-23 01:20:00,37.9,29.7,29.61,SW,232,11.5,11.5,72,0.00,CLR,SKC,0.00,WeatherDisplay:10.37,2013-02-23 08:20:00,
2013-02-23 01:25:00,37.9,29.7,29.61,WSW,255,4.6,4.6,72,0.00,CLR,SKC,0.00,WeatherDisplay:10.37,2013-02-23 08:25:00,
2013-02-23 01:31:00,37.7,30.2,29.61,SW,230,4.0,4.0,74,0.00,CLR,SKC,0.00,WeatherDisplay:10.37,2013-02-23 08:31:00,
2013-02-23 01:36:00,37.3,30.4,29.62,NW,309,3.5,3.5,76,0.00,CLR,SKC,0.00,WeatherDisplay:10.37,2013-02-23 08:36:00,
2013-02-23 01:41:00,36.8,31.2,29.63,WNW,296,3.5,3.5,80,0.00,CLR,SKC,0.00,WeatherDisplay:10.37,2013-02-23 08:41:00,
2013-02-23 01:46:00,35.4,31.0,29.65,NW,313,3.5,3.5,84,0.00,CLR,SKC,0.00,WeatherDisplay:10.37,2013-02-23 08:46:00,
2013-02-23 01:51:00,33.7,30.2,29.64,SSW,208,9.2,9.2,87,0.00,CLR,SKC,0.00,WeatherDisplay:10.37,2013-02-23 08:51:00,
2013-02-23 01:56:00,32.8,29.9,29.64,SW,225,5.0,5.0,89,0.00,CLR,SKC,0.00,WeatherDisplay:10.37,2013-02-23 08:56:00,
2013-02-23 02:01:00,32.4,29.8,29.63,SW,235,4.6,4.6,90,0.00,CLR,SKC,0.00,WeatherDisplay:10.37,2013-02-23 09:01:00,
2013-02-23 02:06:00,32.2,29.6,29.63,SW,236,5.8,5.8,90,0.00,CLR,SKC,0.00,WeatherDisplay:10.37,2013-02-23 09:06:00,
2013-02-23 02:11:00,32.1,29.8,29.62,SW,219,3.5,3.5,91,0.00,CLR,SKC,0.00,WeatherDisplay:10.37,2013-02-23 09:11:00,
2013-02-23 02:16:00,32.1,29.5,29.61,SSW,205,4.6,4.6,90,0.00,CLR,SKC,0.00,WeatherDisplay:10.37,2013-02-23 09:16:00,
2013-02-23 02:21:00,32.1,29.2,29.60,West,264,3.5,3.5,89,0.00,CLR,SKC,0.00,WeatherDisplay:10.37,2013-02-23 09:21:00,
2013-02-23 02:26:00,32.1,28.1,29.60,South,188,6.9,6.9,85,0.00,CLR,SKC,0.00,WeatherDisplay:10.37,2013-02-23 09:26:00,
2013-02-23 02:31:00,32.4,28.1,29.61,WSW,246,8.1,8.1,84,0.00,CLR,SKC,0.00,WeatherDisplay:10.37,2013-02-23 09:31:00,
2013-02-23 02:36:00,32.7,27.5,29.60,ENE,59,5.0,5.0,81,0.00,CLR,SKC,0.00,WeatherDisplay:10.37,2013-02-23 09:36:00,
2013-02-23 02:41:00,33.2,27.4,29.61,SSW,194,8.1,8.1,79,0.00,CLR,SKC,0.00,WeatherDisplay:10.37,2013-02-23 09:41:00,
2013-02-23 02:47:00,33.8,27.0,29.61,WNW,286,11.5,11.5,76,0.00,CLR,SKC,0.00,WeatherDisplay:10.37,2013-02-23 09:47:00,
2013-02-23 02:52:00,33.7,27.3,29.61,SSE,156,9.2,9.2,77,0.00,CLR,SKC,0.00,WeatherDisplay:10.37,2013-02-23 09:52:00,
2013-02-23 02:57:00,33.5,27.7,29.61,South,174,9.2,9.2,79,0.00,CLR,SKC,0.00,WeatherDisplay:10.37,2013-02-23 09:57:00,
2013-02-23 03:02:00,33.3,26.9,29.62,SW,218,5.8,5.8,77,0.00,CLR,SKC,0.00,WeatherDisplay:10.37,2013-02-23 10:02:00,
2013-02-23 03:07:00,33.3,27.5,29.63,SSW,200,11.5,11.5,79,0.00,CLR,SKC,0.00,WeatherDisplay:10.37,2013-02-23 10:07:00,
2013-02-23 03:12:00,33.5,27.4,29.63,SW,225,11.5,11.5,78,0.00,CLR,SKC,0.00,WeatherDisplay:10.37,2013-02-23 10:12:00,
2013-02-23 03:17:00,33.1,27.9,29.65,SW,229,8.1,8.1,81,0.00,CLR,SKC,0.00,WeatherDisplay:10.37,2013-02-23 10:17:00,
2013-02-23 03:21:00,32.6,27.1,29.65,WSW,240,6.9,6.9,80,0.00,CLR,SKC,0.00,WeatherDisplay:10.37,2013-02-23 10:21:00,
2013-02-23 03:26:00,32.3,25.9,29.66,WSW,248,7.0,7.0,77,0.00,CLR,SKC,0.00,WeatherDisplay:10.37,2013-02-23 10:26:00,
2013-02-23 03:31:00,32.0,26.8,29.67,SW,233,4.0,4.0,81,0.00,CLR,SKC,0.00,WeatherDisplay:10.37,2013-02-23 10:31:00,
2013-02-23 03:36:00,31.7,25.6,29.67,South,181,8.1,8.1,78,0.00,CLR,SKC,0.00,WeatherDisplay:10.37,2013-02-23 10:36:00,
2013-02-23 03:41:00,32.0,25.3,29.67,WSW,240,4.6,4.6,76,0.00,CLR,SKC,0.00,WeatherDisplay:10.37,2013-02-23 10:41:00,
2013-02-23 03:47:00,32.1,24.7,29.67,WSW,245,3.5,3.5,74,0.00,CLR,SKC,0.00,WeatherDisplay:10.37,2013-02-23 10:47:00,
2013-02-23 03:52:00,32.5,24.1,29.67,South,188,3.5,3.5,71,0.00,CLR,SKC,0.00,WeatherDisplay:10.37,2013-02-23 10:52:00,
2013-02-23 03:57:00,32.6,24.9,29.67,SW,221,5.8,5.8,73,0.00,CLR,SKC,0.00,WeatherDisplay:10.37,2013-02-23 10:57:00,
2013-02-23 04:02:00,32.3,26.2,29.67,WSW,237,5.8,5.8,78,0.00,CLR,SKC,0.00,WeatherDisplay:10.37,2013-02-23 11:02:00,
2013-02-23 04:08:00,31.7,26.2,29.68,SW,217,5.0,6.0,80,0.00,CLR,SKC,0.00,WeatherDisplay:10.37,2013-02-23 11:08:00,
2013-02-23 04:13:00,31.5,26.3,29.67,SE,129,3.5,3.5,81,0.00,CLR,SKC,0.00,WeatherDisplay:10.37,2013-02-23 11:13:00,
2013-02-23 04:18:00,31.7,26.2,29.66,SE,134,3.5,3.5,80,0.00,CLR,SKC,0.00,WeatherDisplay:10.37,2013-02-23 11:18:00,
2013-02-23 04:23:00,31.9,25.8,29.67,SW,221,4.6,4.6,78,0.00,CLR,SKC,0.00,WeatherDisplay:10.37,2013-02-23 11:23:00,
2013-02-23 04:28:00,31.9,25.5,29.67,SSE,153,2.3,2.3,77,0.00,CLR,SKC,0.00,WeatherDisplay:10.37,2013-02-23 11:28:00,
2013-02-23 04:33:00,32.0,24.6,29.68,SW,234,7.0,7.0,74,0.00,CLR,SKC,0.00,WeatherDisplay:10.37,2013-02-23 11:33:00,
2013-02-23 04:39:00,32.3,22.2,29.68,South,175,2.3,2.3,66,0.00,CLR,SKC,0.00,WeatherDisplay:10.37,2013-02-23 11:39:00,
2013-02-23 04:44:00,32.5,24.1,29.69,WNW,302,5.8,5.8,71,0.00,CLR,SKC,0.00,WeatherDisplay:10.37,2013-02-23 11:44:00,
2013-02-23 04:50:00,32.4,24.0,29.69,South,171,3.5,3.5,71,0.00,CLR,SKC,0.00,WeatherDisplay:10.37,2013-02-23 11:50:00,
2013-02-23 04:55:00,32.3,24.3,29.70,SSW,207,3.5,3.5,72,0.00,CLR,SKC,0.00,WeatherDisplay:10.37,2013-02-23 11:55:00,
2013-02-23 05:01:00,32.0,23.7,29.70,SSE,158,2.3,2.3,71,0.00,CLR,SKC,0.00,WeatherDisplay:10.37,2013-02-23 12:01:00,
2013-02-23 05:07:00,31.8,24.5,29.70,South,180,4.0,4.0,74,0.00,CLR,SKC,0.00,WeatherDisplay:10.37,2013-02-23 12:07:00,
2013-02-23 05:12:00,31.3,24.0,29.70,SSE,162,5.0,5.0,74,0.00,CLR,SKC,0.00,WeatherDisplay:10.37,2013-02-23 12:12:00,
2013-02-23 05:17:00,31.2,22.9,29.70,SSE,165,3.5,3.5,71,0.00,CLR,SKC,0.00,WeatherDisplay:10.37,2013-02-23 12:17:00,
2013-02-23 05:23:00,31.1,23.1,29.72,SSE,165,4.0,4.0,72,0.00,CLR,SKC,0.00,WeatherDisplay:10.37,2013-02-23 12:23:00,
2013-02-23 05:28:00,31.2,22.5,29.72,SW,231,3.5,3.5,70,0.00,CLR,SKC,0.00,WeatherDisplay:10.37,2013-02-23 12:28:00,
2013-02-23 05:33:00,31.1,23.1,29.72,SW,215,3.5,3.5,72,0.00,CLR,SKC,0.00,WeatherDisplay:10.37,2013-02-23 12:33:00,
2013-02-23 05:38:00,31.2,22.5,29.72,SW,233,3.5,3.5,70,0.00,CLR,SKC,0.00,WeatherDisplay:10.37,2013-02-23 12:38:00,
2013-02-23 05:43:00,31.1,22.8,29.72,SSW,212,3.5,3.5,71,0.00,CLR,SKC,0.00,WeatherDisplay:10.37,2013-02-23 12:43:00,
2013-02-23 05:49:00,31.1,20.7,29.72,SW,229,0.0,3.0,65,0.00,CLR,SKC,0.00,WeatherDisplay:10.37,2013-02-23 12:49:00,
2013-02-23 05:54:00,31.0,22.0,29.73,WNW,292,3.5,3.5,69,0.00,CLR,SKC,0.00,WeatherDisplay:10.37,2013-02-23 12:54:00,
2013-02-23 05:59:00,31.0,22.7,29.73,SW,236,2.3,2.3,71,0.00,CLR,SKC,0.00,WeatherDisplay:10.37,2013-02-23 12:59:00,
2013-02-23 06:04:00,30.9,22.6,29.73,SW,223,3.5,3.5,71,0.00,CLR,SKC,0.00,WeatherDisplay:10.37,2013-02-23 13:04:00,
2013-02-23 06:09:00,30.6,24.2,29.73,SW,221,2.3,2.3,77,0.00,CLR,SKC,0.00,WeatherDisplay:10.37,2013-02-23 13:09:00,
2013-02-23 06:14:00,30.3,19.9,29.74,SW,227,5.0,5.0,65,0.00,CLR,SKC,0.00,WeatherDisplay:10.37,2013-02-23 13:14:00,
2013-02-23 06:19:00,30.7,23.1,29.75,WSW,239,2.3,2.3,73,0.00,CLR,SKC,0.00,WeatherDisplay:10.37,2013-02-23 13:19:00,
2013-02-23 06:24:00,30.7,22.4,29.75,SW,234,3.5,3.5,71,0.00,CLR,SKC,0.00,WeatherDisplay:10.37,2013-02-23 13:24:00,
2013-02-23 06:29:00,30.8,19.3,29.75,SE,130,2.3,2.3,62,0.00,CLR,SKC,0.00,WeatherDisplay:10.37,2013-02-23 13:29:00,
2013-02-23 06:34:00,31.2,19.3,29.75,WSW,248,0.0,0.0,61,0.00,CLR,SKC,0.00,WeatherDisplay:10.37,2013-02-23 13:34:00,
2013-02-23 06:39:00,31.3,19.8,29.75,WSW,248,0.0,0.0,62,0.00,CLR,SKC,0.00,WeatherDisplay:10.37,2013-02-23 13:39:00,
2013-02-23 06:44:00,31.3,19.8,29.75,WSW,246,2.3,2.3,62,0.00,CLR,SKC,0.00,WeatherDisplay:10.37,2013-02-23 13:44:00,
2013-02-23 06:49:00,31.0,19.5,29.76,SSW,205,3.5,3.5,62,0.00,CLR,SKC,0.00,WeatherDisplay:10.37,2013-02-23 13:49:00,
2013-02-23 06:54:00,30.9,19.4,29.76,SW,218,3.5,3.5,62,0.00,CLR,SKC,0.00,WeatherDisplay:10.37,2013-02-23 13:54:00,
2013-02-23 06:59:00,31.3,17.4,29.76,SSW,194,4.0,4.0,56,0.00,CLR,SKC,0.00,WeatherDisplay:10.37,2013-02-23 13:59:00,
2013-02-23 07:04:00,31.6,16.4,29.76,SW,219,3.5,3.5,53,0.00,CLR,SKC,0.00,WeatherDisplay:10.37,2013-02-23 14:04:00,
2013-02-23 07:09:00,31.5,18.0,29.77,SW,231,3.5,3.5,57,0.00,CLR,SKC,0.00,WeatherDisplay:10.37,2013-02-23 14:09:00,
2013-02-23 07:14:00,31.3,17.4,29.77,WSW,254,0.0,0.0,56,0.00,CLR,SKC,0.00,WeatherDisplay:10.37,2013-02-23 14:14:00,
2013-02-23 07:19:00,31.2,20.1,29.78,NW,306,3.5,3.5,63,0.00,CLR,SKC,0.00,WeatherDisplay:10.37,2013-02-23 14:19:00,
2013-02-23 07:24:00,30.9,18.2,29.78,SW,235,3.5,3.5,59,0.00,CLR,SKC,0.00,WeatherDisplay:10.37,2013-02-23 14:24:00,
2013-02-23 07:29:00,30.9,17.0,29.78,SW,233,3.5,3.5,56,0.00,CLR,SKC,0.00,WeatherDisplay:10.37,2013-02-23 14:29:00,
2013-02-23 07:34:00,31.0,17.1,29.78,SW,225,2.0,2.0,56,0.00,CLR,SKC,0.00,WeatherDisplay:10.37,2013-02-23 14:34:00,
2013-02-23 07:39:00,31.0,17.5,29.79,WSW,241,2.3,2.3,57,0.00,CLR,SKC,0.00,WeatherDisplay:10.37,2013-02-23 14:39:00,
2013-02-23 07:44:00,30.6,16.7,29.78,SSW,196,6.9,6.9,56,0.00,CLR,SKC,0.00,WeatherDisplay:10.37,2013-02-23 14:44:00,
2013-02-23 07:49:00,30.9,16.6,29.79,SW,219,5.8,5.8,55,0.00,CLR,SKC,0.00,WeatherDisplay:10.37,2013-02-23 14:49:00,
2013-02-23 07:54:00,31.0,16.7,29.79,North,355,2.3,2.3,55,0.00,CLR,SKC,0.00,WeatherDisplay:10.37,2013-02-23 14:54:00,
2013-02-23 07:59:00,31.0,16.3,29.79,South,182,5.8,5.8,54,0.00,CLR,SKC,0.00,WeatherDisplay:10.37,2013-02-23 14:59:00,
2013-02-23 08:04:00,31.1,15.9,29.79,SW,229,6.9,6.9,53,0.00,CLR,SKC,0.00,WeatherDisplay:10.37,2013-02-23 15:04:00,
2013-02-23 08:09:00,31.1,15.5,29.79,SSW,196,1.1,1.1,52,0.00,CLR,SKC,0.00,WeatherDisplay:10.37,2013-02-23 15:09:00,
2013-02-23 08:13:00,31.1,16.4,29.79,SSW,204,2.3,2.3,54,0.00,CLR,SKC,0.00,WeatherDisplay:10.37,2013-02-23 15:13:00,
2013-02-23 08:18:00,31.1,15.9,29.79,SW,234,1.1,1.1,53,0.00,CLR,SKC,0.00,WeatherDisplay:10.37,2013-02-23 15:18:00,
2013-02-23 08:23:00,31.0,16.3,29.80,SW,234,1.1,1.1,54,0.00,CLR,SKC,0.00,WeatherDisplay:10.37,2013-02-23 15:23:00,
2013-02-23 08:28:00,30.9,17.0,29.80,SW,234,0.0,0.0,56,0.00,CLR,SKC,0.00,WeatherDisplay:10.37,2013-02-23 15:28:00,
2013-02-23 08:33:00,30.9,16.6,29.80,SW,228,3.5,3.5,55,0.00,CLR,SKC,0.00,WeatherDisplay:10.37,2013-02-23 15:33:00,
2013-02-23 08:38:00,31.0,16.3,29.79,WSW,248,3.5,3.5,54,0.00,CLR,SKC,0.00,WeatherDisplay:10.37,2013-02-23 15:38:00,
2013-02-23 08:43:00,31.1,15.9,29.80,SW,230,3.5,3.5,53,0.00,CLR,SKC,0.00,WeatherDisplay:10.37,2013-02-23 15:43:00,
2013-02-23 08:48:00,31.1,17.2,29.80,WSW,256,2.3,2.3,56,0.00,CLR,SKC,0.00,WeatherDisplay:10.37,2013-02-23 15:48:00,
2013-02-23 08:54:00,31.1,16.8,29.80,SW,226,3.5,3.5,55,0.00,CLR,SKC,0.00,WeatherDisplay:10.37,2013-02-23 15:54:00,
2013-02-23 08:59:00,31.1,16.8,29.80,WSW,238,3.5,3.5,55,0.00,CLR,SKC,0.00,WeatherDisplay:10.37,2013-02-23 15:59:00,
2013-02-23 09:04:00,31.0,16.3,29.80,West,259,5.8,5.8,54,0.00,CLR,SKC,0.00,WeatherDisplay:10.37,2013-02-23 16:04:00,
2013-02-23 09:09:00,31.0,17.1,29.79,SSW,205,6.9,6.9,56,0.00,CLR,SKC,0.00,WeatherDisplay:10.37,2013-02-23 16:09:00,
2013-02-23 09:14:00,30.9,17.4,29.79,WSW,245,12.0,12.0,57,0.00,CLR,SKC,0.00,WeatherDisplay:10.37,2013-02-23 16:14:00,
2013-02-23 09:19:00,30.8,16.9,29.79,SSW,212,9.2,9.2,56,0.00,CLR,SKC,0.00,WeatherDisplay:10.37,2013-02-23 16:19:00,
2013-02-23 09:24:00,30.8,17.3,29.79,SW,223,11.0,11.0,57,0.00,CLR,SKC,0.00,WeatherDisplay:10.37,2013-02-23 16:24:00,
2013-02-23 09:29:00,30.8,17.3,29.79,WSW,254,13.8,13.8,57,0.00,CLR,SKC,0.00,WeatherDisplay:10.37,2013-02-23 16:29:00,
2013-02-23 09:34:00,30.8,17.3,29.79,SSE,148,11.5,11.5,57,0.00,CLR,SKC,0.00,WeatherDisplay:10.37,2013-02-23 16:34:00,
2013-02-23 09:39:00,30.9,15.3,29.80,WNW,292,18.4,18.4,52,0.00,CLR,SKC,0.00,WeatherDisplay:10.37,2013-02-23 16:39:00,
2013-02-23 09:45:00,31.0,15.4,29.80,SW,232,11.0,11.0,52,0.00,CLR,SKC,0.00,WeatherDisplay:10.37,2013-02-23 16:45:00,
2013-02-23 09:50:00,31.1,15.9,29.81,SE,144,8.1,8.1,53,0.00,CLR,SKC,0.00,WeatherDisplay:10.37,2013-02-23 16:50:00,
2013-02-23 09:55:00,31.1,15.5,29.81,ESE,113,3.5,3.5,52,0.00,CLR,SKC,0.00,WeatherDisplay:10.37,2013-02-23 16:55:00,
2013-02-23 10:00:00,31.0,15.4,29.81,SW,223,9.2,9.2,52,0.00,CLR,SKC,0.00,WeatherDisplay:10.37,2013-02-23 17:00:00,
2013-02-23 10:05:00,31.3,15.2,29.81,SSE,161,3.5,3.5,51,0.00,CLR,SKC,0.00,WeatherDisplay:10.37,2013-02-23 17:05:00,
2013-02-23 10:10:00,31.4,15.3,29.82,East,88,2.3,2.3,51,0.00,CLR,SKC,0.00,WeatherDisplay:10.37,2013-02-23 17:10:00,
2013-02-23 10:15:00,31.4,17.5,29.81,NNE,30,4.0,4.0,56,0.00,CLR,SKC,0.00,WeatherDisplay:10.37,2013-02-23 17:15:00,
2013-02-23 10:21:00,31.2,18.5,29.81,East,95,2.0,2.0,59,0.00,CLR,SKC,0.00,WeatherDisplay:10.37,2013-02-23 17:21:00,
2013-02-23 10:26:00,31.3,15.2,29.82,SSW,192,3.5,3.5,51,0.00,CLR,SKC,0.00,WeatherDisplay:10.37,2013-02-23 17:26:00,
2013-02-23 10:31:00,31.6,15.5,29.82,SW,225,3.5,3.5,51,0.00,CLR,SKC,0.00,WeatherDisplay:10.37,2013-02-23 17:31:00,
2013-02-23 10:36:00,31.9,14.4,29.83,West,259,4.6,4.6,48,0.00,CLR,SKC,0.00,WeatherDisplay:10.37,2013-02-23 17:36:00,
2013-02-23 10:41:00,32.2,15.6,29.83,SSE,162,5.8,5.8,50,0.00,CLR,SKC,0.00,WeatherDisplay:10.37,2013-02-23 17:41:00,
2013-02-23 10:47:00,32.3,15.3,29.84,South,175,8.1,8.1,49,0.00,CLR,SKC,0.00,WeatherDisplay:10.37,2013-02-23 17:47:00,
2013-02-23 10:52:00,32.4,14.9,29.85,SW,235,9.2,9.2,48,0.00,CLR,SKC,0.00,WeatherDisplay:10.37,2013-02-23 17:52:00,
2013-02-23 10:57:00,32.4,14.4,29.85,SSW,194,5.8,5.8,47,0.00,CLR,SKC,0.00,WeatherDisplay:10.37,2013-02-23 17:57:00,
2013-02-23 11:03:00,32.5,15.0,29.85,SSW,209,5.8,5.8,48,0.00,CLR,SKC,0.00,WeatherDisplay:10.37,2013-02-23 18:03:00,
2013-02-23 11:08:00,32.6,14.6,29.85,SW,224,3.5,3.5,47,0.00,CLR,SKC,0.00,WeatherDisplay:10.37,2013-02-23 18:08:00,
2013-02-23 11:13:00,32.9,15.3,29.85,SSE,151,5.8,5.8,48,0.00,CLR,SKC,0.00,WeatherDisplay:10.37,2013-02-23 18:13:00,
2013-02-23 11:18:00,33.2,15.1,29.85,SW,225,10.0,10.0,47,0.00,CLR,SKC,0.00,WeatherDisplay:10.37,2013-02-23 18:18:00,
2013-02-23 11:23:00,33.3,15.2,29.86,SW,221,15.0,15.0,47,0.00,CLR,SKC,0.00,WeatherDisplay:10.37,2013-02-23 18:23:00,
2013-02-23 11:28:00,33.2,15.6,29.86,South,187,3.5,3.5,48,0.00,CLR,SKC,0.00,WeatherDisplay:10.37,2013-02-23 18:28:00,
2013-02-23 11:33:00,33.3,14.7,29.85,WSW,256,15.0,15.0,46,0.00,CLR,SKC,0.00,WeatherDisplay:10.37,2013-02-23 18:33:00,
2013-02-23 11:38:00,33.6,14.5,29.86,WSW,246,3.5,3.5,45,0.00,CLR,SKC,0.00,WeatherDisplay:10.37,2013-02-23 18:38:00,
2013-02-23 11:43:00,34.3,15.1,29.86,WNW,301,5.8,5.8,45,0.00,CLR,SKC,0.00,WeatherDisplay:10.37,2013-02-23 18:43:00,
2013-02-23 11:48:00,34.4,15.2,29.86,SW,227,4.6,4.6,45,0.00,CLR,SKC,0.00,WeatherDisplay:10.37,2013-02-23 18:48:00,
2013-02-23 11:53:00,34.2,14.5,29.87,SW,233,3.0,7.0,44,0.00,CLR,SKC,0.00,WeatherDisplay:10.37,2013-02-23 18:53:00,
2013-02-23 11:58:00,34.1,16.9,29.87,West,262,3.0,8.0,49,0.00,CLR,SKC,0.00,WeatherDisplay:10.37,2013-02-23 18:58:00,
2013-02-23 12:04:00,34.0,16.3,29.87,NW,309,2.3,2.3,48,0.00,CLR,SKC,0.00,WeatherDisplay:10.37,2013-02-23 19:04:00,
2013-02-23 12:09:00,34.1,16.9,29.87,SW,232,4.6,4.6,49,0.00,CLR,SKC,0.00,WeatherDisplay:10.37,2013-02-23 19:09:00,
2013-02-23 12:14:00,34.2,17.0,29.87,SW,218,12.7,12.7,49,0.00,CLR,SKC,0.00,WeatherDisplay:10.37,2013-02-23 19:14:00,
2013-02-23 12:19:00,33.4,18.9,29.87,SW,236,12.7,12.7,55,0.00,CLR,SKC,0.00,WeatherDisplay:10.37,2013-02-23 19:19:00,
2013-02-23 12:24:00,33.6,18.3,29.87,SW,229,9.2,9.2,53,0.00,CLR,SKC,0.00,WeatherDisplay:10.37,2013-02-23 19:24:00,
2013-02-23 12:29:00,33.9,18.1,29.87,West,270,12.7,12.7,52,0.00,CLR,SKC,0.00,WeatherDisplay:10.37,2013-02-23 19:29:00,
2013-02-23 12:34:00,33.9,17.7,29.86,SW,234,15.0,15.0,51,0.00,CLR,SKC,0.00,WeatherDisplay:10.37,2013-02-23 19:34:00,
2013-02-23 12:39:00,34.1,17.8,29.86,SSW,209,5.0,5.0,51,0.00,CLR,SKC,0.00,WeatherDisplay:10.37,2013-02-23 19:39:00,
2013-02-23 12:44:00,34.1,19.2,29.86,WSW,245,15.0,15.0,54,0.00,CLR,SKC,0.00,WeatherDisplay:10.37,2013-02-23 19:44:00,
2013-02-23 12:49:00,33.9,18.1,29.87,SSW,211,10.4,10.4,52,0.00,CLR,SKC,0.00,WeatherDisplay:10.37,2013-02-23 19:49:00,
2013-02-23 12:53:00,33.9,16.7,29.86,SW,223,11.5,11.5,49,0.00,CLR,SKC,0.00,WeatherDisplay:10.37,2013-02-23 19:53:00,
2013-02-23 12:58:00,33.9,15.8,29.86,SSW,206,8.1,8.1,47,0.00,CLR,SKC,0.00,WeatherDisplay:10.37,2013-02-23 19:58:00,
2013-02-23 13:03:00,34.0,16.3,29.87,SSW,211,9.2,9.2,48,0.00,CLR,SKC,0.00,WeatherDisplay:10.37,2013-02-23 20:03:00,
2013-02-23 13:09:00,33.8,17.1,29.87,NW,304,4.6,4.6,50,0.00,CLR,SKC,0.00,WeatherDisplay:10.37,2013-02-23 20:09:00,
2013-02-23 13:14:00,33.8,16.6,29.87,SSW,213,6.9,6.9,49,0.00,CLR,SKC,0.00,WeatherDisplay:10.37,2013-02-23 20:14:00,
2013-02-23 13:19:00,33.8,15.7,29.87,WSW,244,16.1,16.1,47,0.00,CLR,SKC,0.00,WeatherDisplay:10.37,2013-02-23 20:19:00,
2013-02-23 13:24:00,33.8,16.6,29.87,SSW,194,11.0,11.0,49,0.00,CLR,SKC,0.00,WeatherDisplay:10.37,2013-02-23 20:24:00,
2013-02-23 13:30:00,33.7,17.0,29.87,WSW,242,8.1,8.1,50,0.00,CLR,SKC,0.00,WeatherDisplay:10.37,2013-02-23 20:30:00,
2013-02-23 13:35:00,33.6,18.3,29.88,West,261,10.4,10.4,53,0.00,CLR,SKC,0.00,WeatherDisplay:10.37,2013-02-23 20:35:00,
2013-02-23 13:41:00,33.3,17.5,29.87,SSW,202,10.4,10.4,52,0.00,CLR,SKC,0.00,WeatherDisplay:10.37,2013-02-23 20:41:00,
2013-02-23 13:46:00,33.1,19.1,29.88,SSW,210,8.1,8.1,56,0.00,CLR,SKC,0.00,WeatherDisplay:10.37,2013-02-23 20:46:00,
2013-02-23 13:51:00,33.0,19.0,29.88,SSW,200,12.7,12.7,56,0.00,CLR,SKC,0.00,WeatherDisplay:10.37,2013-02-23 20:51:00,
2013-02-23 13:56:00,32.9,18.5,29.88,WSW,252,19.6,19.6,55,0.00,CLR,SKC,0.00,WeatherDisplay:10.37,2013-02-23 20:56:00,
2013-02-23 14:01:00,32.9,18.9,29.88,WNW,285,11.5,11.5,56,0.00,CLR,SKC,0.00,WeatherDisplay:10.37,2013-02-23 21:01:00,
2013-02-23 14:06:00,32.9,18.9,29.88,SW,236,8.1,8.1,56,0.00,CLR,SKC,0.00,WeatherDisplay:10.37,2013-02-23 21:06:00,
2013-02-23 14:12:00,32.9,19.7,29.88,SW,236,7.0,7.0,58,0.00,CLR,SKC,0.00,WeatherDisplay:10.37,2013-02-23 21:12:00,
2013-02-23 14:17:00,32.9,19.3,29.88,WSW,253,4.6,4.6,57,0.00,CLR,SKC,0.00,WeatherDisplay:10.37,2013-02-23 21:17:00,
2013-02-23 14:23:00,33.0,19.8,29.89,SW,231,3.0,7.0,58,0.00,CLR,SKC,0.00,WeatherDisplay:10.37,2013-02-23 21:23:00,
2013-02-23 14:28:00,32.9,19.7,29.89,SW,232,5.0,13.0,58,0.00,CLR,SKC,0.00,WeatherDisplay:10.37,2013-02-23 21:28:00,
2013-02-23 14:33:00,32.8,20.0,29.89,WSW,255,10.4,10.4,59,0.00,CLR,SKC,0.00,WeatherDisplay:10.37,2013-02-23 21:33:00,
2013-02-23 14:38:00,32.6,20.2,29.90,West,271,6.9,6.9,60,0.00,CLR,SKC,0.00,WeatherDisplay:10.37,2013-02-23 21:38:00,
2013-02-23 14:43:00,32.6,20.6,29.90,SW,227,5.8,5.8,61,0.00,CLR,SKC,0.00,WeatherDisplay:10.37,2013-02-23 21:43:00,
2013-02-23 14:48:00,32.6,21.0,29.90,SSW,211,4.0,4.0,62,0.00,CLR,SKC,0.00,WeatherDisplay:10.37,2013-02-23 21:48:00,
2013-02-23 14:53:00,32.9,20.1,29.90,WSW,241,9.2,9.2,59,0.00,CLR,SKC,0.00,WeatherDisplay:10.37,2013-02-23 21:53:00,
2013-02-23 14:58:00,33.2,20.0,29.91,WSW,248,4.6,4.6,58,0.00,CLR,SKC,0.00,WeatherDisplay:10.37,2013-02-23 21:58:00,
2013-02-23 15:03:00,33.4,19.4,29.90,SW,227,8.0,8.0,56,0.00,CLR,SKC,0.00,WeatherDisplay:10.37,2013-02-23 22:03:00,
2013-02-23 15:08:00,33.7,19.7,29.90,SW,230,5.8,5.8,56,0.00,CLR,SKC,0.00,WeatherDisplay:10.37,2013-02-23 22:08:00,
2013-02-23 15:13:00,34.4,19.5,29.91,SSW,199,5.8,5.8,54,0.00,CLR,SKC,0.00,WeatherDisplay:10.37,2013-02-23 22:13:00,
2013-02-23 15:18:00,35.0,17.7,29.91,SW,234,9.2,9.2,49,0.00,CLR,SKC,0.00,WeatherDisplay:10.37,2013-02-23 22:18:00,
2013-02-23 15:23:00,35.3,18.0,29.91,SSW,212,6.9,6.9,49,0.00,CLR,SKC,0.00,WeatherDisplay:10.37,2013-02-23 22:23:00,
2013-02-23 15:28:00,35.3,18.0,29.91,WSW,257,10.0,10.0,49,0.00,CLR,SKC,0.00,WeatherDisplay:10.37,2013-02-23 22:28:00,
2013-02-23 15:33:00,35.2,17.4,29.92,West,275,4.6,4.6,48,0.00,CLR,SKC,0.00,WeatherDisplay:10.37,2013-02-23 22:33:00,
2013-02-23 15:39:00,35.3,17.1,29.91,SW,222,7.0,7.0,47,0.00,CLR,SKC,0.00,WeatherDisplay:10.37,2013-02-23 22:39:00,
2013-02-23 15:44:00,35.4,16.6,29.91,SSE,162,6.9,6.9,46,0.00,CLR,SKC,0.00,WeatherDisplay:10.37,2013-02-23 22:44:00,
2013-02-23 15:49:00,35.7,16.9,29.91,SW,231,8.1,8.1,46,0.00,CLR,SKC,0.00,WeatherDisplay:10.37,2013-02-23 22:49:00,
2013-02-23 15:54:00,36.0,17.2,29.92,SSW,213,3.5,3.5,46,0.00,CLR,SKC,0.00,WeatherDisplay:10.37,2013-02-23 22:54:00,
2013-02-23 15:59:00,36.4,17.6,29.92,North,5,1.1,1.1,46,0.00,CLR,SKC,0.00,WeatherDisplay:10.37,2013-02-23 22:59:00,
2013-02-23 16:04:00,37.0,17.1,29.92,South,182,3.5,3.5,44,0.00,CLR,SKC,0.00,WeatherDisplay:10.37,2013-02-23 23:04:00,
2013-02-23 16:09:00,37.4,16.9,29.92,SSE,148,3.5,3.5,43,0.00,CLR,SKC,0.00,WeatherDisplay:10.37,2013-02-23 23:09:00,
2013-02-23 16:14:00,37.3,15.7,29.93,NE,54,3.5,3.5,41,0.00,CLR,SKC,0.00,WeatherDisplay:10.37,2013-02-23 23:14:00,
2013-02-23 16:19:00,37.3,16.3,29.93,ENE,76,2.3,2.3,42,0.00,CLR,SKC,0.00,WeatherDisplay:10.37,2013-02-23 23:19:00,
2013-02-23 16:24:00,37.6,16.5,29.93,SSE,165,3.5,3.5,42,0.00,CLR,SKC,0.00,WeatherDisplay:10.37,2013-02-23 23:24:00,
2013-02-23 16:29:00,37.8,16.7,29.93,SE,146,2.3,2.3,42,0.00,CLR,SKC,0.00,WeatherDisplay:10.37,2013-02-23 23:29:00,
2013-02-23 16:34:00,37.7,17.2,29.94,NNW,329,2.3,2.3,43,0.00,CLR,SKC,0.00,WeatherDisplay:10.37,2013-02-23 23:34:00,
2013-02-23 16:39:00,37.8,17.3,29.94,SW,215,6.0,6.0,43,0.00,CLR,SKC,0.00,WeatherDisplay:10.37,2013-02-23 23:39:00,
2013-02-23 16:44:00,37.6,17.1,29.94,SW,232,8.1,8.1,43,0.00,CLR,SKC,0.00,WeatherDisplay:10.37,2013-02-23 23:44:00,
2013-02-23 16:49:00,37.3,16.8,29.95,SSW,208,4.6,4.6,43,0.00,CLR,SKC,0.00,WeatherDisplay:10.37,2013-02-23 23:49:00,
2013-02-23 16:54:00,36.9,17.5,29.95,WSW,244,8.1,8.1,45,0.00,CLR,SKC,0.00,WeatherDisplay:10.37,2013-02-23 23:54:00,
2013-02-23 16:59:00,36.5,16.1,29.95,SSW,210,3.5,3.5,43,0.00,CLR,SKC,0.00,WeatherDisplay:10.37,2013-02-23 23:59:00,
2013-02-23 17:04:00,36.5,16.6,29.95,SW,232,3.5,3.5,44,0.00,CLR,SKC,0.00,WeatherDisplay:10.37,2013-02-24 00:04:00,
2013-02-23 17:09:00,36.3,15.4,29.96,SW,226,4.6,4.6,42,0.00,CLR,SKC,0.00,WeatherDisplay:10.37,2013-02-24 00:09:00,
2013-02-23 17:14:00,36.1,15.7,29.96,SW,227,0.0,0.0,43,0.00,CLR,SKC,0.00,WeatherDisplay:10.37,2013-02-24 00:14:00,
2013-02-23 17:19:00,36.1,15.7,29.96,SW,224,2.3,2.3,43,0.00,CLR,SKC,0.00,WeatherDisplay:10.37,2013-02-24 00:19:00,
2013-02-23 17:24:00,36.0,16.7,29.97,SW,224,0.0,3.0,45,0.00,CLR,SKC,0.00,WeatherDisplay:10.37,2013-02-24 00:24:00,
2013-02-23 17:30:00,36.0,16.7,29.97,SW,223,0.0,0.0,45,0.00,CLR,SKC,0.00,WeatherDisplay:10.37,2013-02-24 00:30:00,
2013-02-23 17:35:00,36.0,17.2,29.97,SW,223,2.3,2.3,46,0.00,CLR,SKC,0.00,WeatherDisplay:10.37,2013-02-24 00:35:00,
2013-02-23 17:40:00,35.7,15.9,29.98,SW,232,4.6,4.6,44,0.00,CLR,SKC,0.00,WeatherDisplay:10.37,2013-02-24 00:40:00,
2013-02-23 17:44:00,35.2,16.5,29.98,WSW,240,8.1,8.1,46,0.00,CLR,SKC,0.00,WeatherDisplay:10.37,2013-02-24 00:44:00,
2013-02-23 17:50:00,34.3,18.1,29.99,SW,233,5.0,12.0,51,0.00,CLR,SKC,0.00,WeatherDisplay:10.37,2013-02-24 00:50:00,
2013-02-23 17:55:00,33.8,18.0,29.99,WSW,246,3.5,3.5,52,0.00,CLR,SKC,0.00,WeatherDisplay:10.37,2013-02-24 00:55:00,
2013-02-23 18:00:00,33.9,17.2,30.00,SW,222,3.5,3.5,50,0.00,CLR,SKC,0.00,WeatherDisplay:10.37,2013-02-24 01:00:00,
2013-02-23 18:05:00,34.0,17.3,30.00,SSW,211,3.5,3.5,50,0.00,CLR,SKC,0.00,WeatherDisplay:10.37,2013-02-24 01:05:00,
2013-02-23 18:10:00,34.0,16.8,30.00,SSW,197,3.5,3.5,49,0.00,CLR,SKC,0.00,WeatherDisplay:10.37,2013-02-24 01:10:00,
2013-02-23 18:15:00,33.9,18.1,30.00,West,263,5.8,5.8,52,0.00,CLR,SKC,0.00,WeatherDisplay:10.37,2013-02-24 01:15:00,
2013-02-23 18:21:00,33.5,17.3,30.01,SSW,213,3.5,3.5,51,0.00,CLR,SKC,0.00,WeatherDisplay:10.37,2013-02-24 01:21:00,
2013-02-23 18:26:00,33.5,17.3,30.01,WSW,241,4.0,4.0,51,0.00,CLR,SKC,0.00,WeatherDisplay:10.37,2013-02-24 01:26:00,
2013-02-23 18:32:00,33.5,17.3,30.02,SW,232,5.0,5.0,51,0.00,CLR,SKC,0.00,WeatherDisplay:10.37,2013-02-24 01:32:00,
2013-02-23 18:37:00,33.6,16.9,30.02,SW,217,2.3,2.3,50,0.00,CLR,SKC,0.00,WeatherDisplay:10.37,2013-02-24 01:37:00,
2013-02-23 18:42:00,33.6,16.9,30.03,SW,217,1.1,0.0,50,0.00,CLR,SKC,0.00,WeatherDisplay:10.37,2013-02-24 01:42:00,
2013-02-23 18:47:00,33.5,16.4,30.03,SW,217,0.0,0.0,49,0.00,CLR,SKC,0.00,WeatherDisplay:10.37,2013-02-24 01:47:00,
2013-02-23 18:52:00,33.4,17.2,30.04,SW,217,0.0,0.0,51,0.00,CLR,SKC,0.00,WeatherDisplay:10.37,2013-02-24 01:52:00,
2013-02-23 18:57:00,33.2,16.5,30.04,SW,217,0.0,0.0,50,0.00,CLR,SKC,0.00,WeatherDisplay:10.37,2013-02-24 01:57:00,
2013-02-23 19:02:00,33.1,19.1,30.04,SW,217,1.0,1.0,56,0.00,CLR,SKC,0.00,WeatherDisplay:10.37,2013-02-24 02:02:00,
2013-02-23 19:07:00,32.7,18.7,30.05,SW,217,0.0,0.0,56,0.00,CLR,SKC,0.00,WeatherDisplay:10.37,2013-02-24 02:07:00,
2013-02-23 19:12:00,32.4,17.2,30.05,SW,217,0.0,0.0,53,0.00,CLR,SKC,0.00,WeatherDisplay:10.37,2013-02-24 02:12:00,
2013-02-23 19:18:00,32.4,17.2,30.05,SW,217,0.0,0.0,53,0.00,CLR,SKC,0.00,WeatherDisplay:10.37,2013-02-24 02:18:00,
2013-02-23 19:23:00,32.5,18.1,30.06,SW,217,0.0,0.0,55,0.00,CLR,SKC,0.00,WeatherDisplay:10.37,2013-02-24 02:23:00,
2013-02-23 19:28:00,32.5,16.8,30.06,SW,217,0.0,0.0,52,0.00,CLR,SKC,0.00,WeatherDisplay:10.37,2013-02-24 02:28:00,
2013-02-23 19:33:00,32.5,17.7,30.06,SW,217,0.0,0.0,54,0.00,CLR,SKC,0.00,WeatherDisplay:10.37,2013-02-24 02:33:00,
2013-02-23 19:38:00,32.5,18.1,30.06,SW,217,0.0,0.0,55,0.00,CLR,SKC,0.00,WeatherDisplay:10.37,2013-02-24 02:38:00,
2013-02-23 19:43:00,32.5,16.8,30.07,SW,217,0.0,0.0,52,0.00,CLR,SKC,0.00,WeatherDisplay:10.37,2013-02-24 02:43:00,
2013-02-23 19:48:00,32.4,17.6,30.07,SW,217,1.1,1.1,54,0.00,CLR,SKC,0.00,WeatherDisplay:10.37,2013-02-24 02:48:00,
2013-02-23 19:53:00,32.4,18.4,30.07,SSW,202,1.1,0.0,56,0.00,CLR,SKC,0.00,WeatherDisplay:10.37,2013-02-24 02:53:00,
2013-02-23 19:58:00,32.6,18.2,30.07,SW,217,2.3,2.3,55,0.00,CLR,SKC,0.00,WeatherDisplay:10.37,2013-02-24 02:58:00,
2013-02-23 20:04:00,32.8,18.8,30.08,West,265,1.1,1.1,56,0.00,CLR,SKC,0.00,WeatherDisplay:10.37,2013-02-24 03:04:00,
2013-02-23 20:09:00,32.9,19.3,30.08,WSW,255,3.0,7.0,57,0.00,CLR,SKC,0.00,WeatherDisplay:10.37,2013-02-24 03:09:00,
2013-02-23 20:15:00,32.9,19.7,30.08,SW,234,4.6,4.6,58,0.00,CLR,SKC,0.00,WeatherDisplay:10.37,2013-02-24 03:15:00,
2013-02-23 20:20:00,32.9,19.3,30.08,SW,227,1.1,0.0,57,0.00,CLR,SKC,0.00,WeatherDisplay:10.37,2013-02-24 03:20:00,
2013-02-23 20:25:00,32.8,19.2,30.08,SW,227,1.1,1.1,57,0.00,CLR,SKC,0.00,WeatherDisplay:10.37,2013-02-24 03:25:00,
2013-02-23 20:30:00,32.6,18.6,30.09,SSW,202,1.1,0.0,56,0.00,CLR,SKC,0.00,WeatherDisplay:10.37,2013-02-24 03:30:00,
2013-02-23 20:35:00,32.4,18.4,30.09,SSW,202,0.0,0.0,56,0.00,CLR,SKC,0.00,WeatherDisplay:10.37,2013-02-24 03:35:00,
2013-02-23 20:40:00,32.2,19.5,30.10,SSW,202,0.0,0.0,59,0.00,CLR,SKC,0.00,WeatherDisplay:10.37,2013-02-24 03:40:00,
2013-02-23 20:45:00,31.7,20.2,30.10,SSW,202,0.0,0.0,62,0.00,CLR,SKC,0.00,WeatherDisplay:10.37,2013-02-24 03:45:00,
2013-02-23 20:51:00,31.3,20.2,30.10,SSW,202,0.0,0.0,63,0.00,CLR,SKC,0.00,WeatherDisplay:10.37,2013-02-24 03:51:00,
2013-02-23 20:56:00,30.9,20.5,30.10,SSW,202,0.0,0.0,65,0.00,CLR,SKC,0.00,WeatherDisplay:10.37,2013-02-24 03:56:00,
2013-02-23 21:01:00,30.3,19.6,30.10,SW,225,2.3,2.3,64,0.00,CLR,SKC,0.00,WeatherDisplay:10.37,2013-02-24 04:01:00,
2013-02-23 21:06:00,30.0,20.4,30.11,SW,225,0.0,0.0,67,0.00,CLR,SKC,0.00,WeatherDisplay:10.37,2013-02-24 04:06:00,
2013-02-23 21:11:00,29.6,20.3,30.11,SW,225,1.1,0.0,68,0.00,CLR,SKC,0.00,WeatherDisplay:10.37,2013-02-24 04:11:00,
2013-02-23 21:16:00,29.4,20.5,30.11,SW,225,0.0,0.0,69,0.00,CLR,SKC,0.00,WeatherDisplay:10.37,2013-02-24 04:16:00,
2013-02-23 21:21:00,29.2,20.3,30.11,SW,225,0.0,0.0,69,0.00,CLR,SKC,0.00,WeatherDisplay:10.37,2013-02-24 04:21:00,
2013-02-23 21:26:00,29.0,20.4,30.11,SW,225,0.0,0.0,70,0.00,CLR,SKC,0.00,WeatherDisplay:10.37,2013-02-24 04:26:00,
2013-02-23 21:31:00,28.8,20.6,30.12,SW,225,0.0,0.0,71,0.00,CLR,SKC,0.00,WeatherDisplay:10.37,2013-02-24 04:31:00,
2013-02-23 21:36:00,28.7,20.1,30.12,SW,225,2.3,2.3,70,0.00,CLR,SKC,0.00,WeatherDisplay:10.37,2013-02-24 04:36:00,
2013-02-23 21:41:00,28.4,19.9,30.12,SW,225,0.0,0.0,70,0.00,CLR,SKC,0.00,WeatherDisplay:10.37,2013-02-24 04:41:00,
2013-02-23 21:46:00,28.4,19.9,30.12,SW,225,0.0,0.0,70,0.00,CLR,SKC,0.00,WeatherDisplay:10.37,2013-02-24 04:46:00,
2013-02-23 21:52:00,28.3,20.1,30.13,SW,225,0.0,0.0,71,0.00,CLR,SKC,0.00,WeatherDisplay:10.37,2013-02-24 04:52:00,
2013-02-23 21:58:00,28.1,19.6,30.13,SSW,211,2.3,2.3,70,0.00,CLR,SKC,0.00,WeatherDisplay:10.37,2013-02-24 04:58:00,
2013-02-23 22:00:00,28.2,19.3,30.13,SSW,198,1.1,0.0,69,0.00,CLR,SKC,0.00,WeatherDisplay:10.37,2013-02-24 05:00:00,
2013-02-23 22:03:00,28.2,20.0,30.13,SSW,206,2.3,2.3,71,0.00,CLR,SKC,0.00,WeatherDisplay:10.37,2013-02-24 05:03:00,
2013-02-23 22:04:00,28.2,20.3,30.13,SSW,208,0.0,2.0,72,0.00,CLR,SKC,0.00,WeatherDisplay:10.37,2013-02-24 05:04:00,
2013-02-23 22:05:00,28.2,20.3,30.13,SSW,206,0.0,0.0,72,0.00,CLR,SKC,0.00,WeatherDisplay:10.37,2013-02-24 05:05:00,
2013-02-23 22:10:00,28.1,19.6,30.13,SW,215,1.1,0.0,70,0.00,CLR,SKC,0.00,WeatherDisplay:10.37,2013-02-24 05:10:00,
2013-02-23 22:15:00,28.0,20.1,30.13,SW,215,1.1,0.0,72,0.00,CLR,SKC,0.00,WeatherDisplay:10.37,2013-02-24 05:15:00,
2013-02-23 22:20:00,28.1,19.2,30.14,SW,219,2.3,2.3,69,0.00,CLR,SKC,0.00,WeatherDisplay:10.37,2013-02-24 05:20:00,
2013-02-23 22:25:00,28.5,19.3,30.14,West,261,1.1,1.1,68,0.00,CLR,SKC,0.00,WeatherDisplay:10.37,2013-02-24 05:25:00,
2013-02-23 22:29:00,29.4,18.3,30.13,SW,227,5.0,5.0,63,0.00,CLR,SKC,0.00,WeatherDisplay:10.37,2013-02-24 05:29:00,
2013-02-23 22:34:00,30.1,18.3,30.14,SW,225,3.5,3.5,61,0.00,CLR,SKC,0.00,WeatherDisplay:10.37,2013-02-24 05:34:00,
2013-02-23 22:39:00,30.4,18.2,30.14,SSW,213,1.1,1.1,60,0.00,CLR,SKC,0.00,WeatherDisplay:10.37,2013-02-24 05:39:00,
2013-02-23 22:44:00,30.5,19.0,30.14,NNE,23,3.5,3.5,62,0.00,CLR,SKC,0.00,WeatherDisplay:10.37,2013-02-24 05:44:00,
2013-02-23 22:49:00,29.6,19.3,30.15,WNW,289,2.3,2.3,65,0.00,CLR,SKC,0.00,WeatherDisplay:10.37,2013-02-24 05:49:00,
2013-02-23 22:55:00,28.9,19.7,30.15,WNW,289,0.0,0.0,68,0.00,CLR,SKC,0.00,WeatherDisplay:10.37,2013-02-24 05:55:00,
2013-02-23 23:00:00,28.6,19.0,30.15,WNW,293,1.1,1.1,67,0.00,CLR,SKC,0.00,WeatherDisplay:10.37,2013-02-24 06:00:00,
2013-02-23 23:05:00,28.3,18.4,30.15,WNW,293,0.0,0.0,66,0.00,CLR,SKC,0.00,WeatherDisplay:10.37,2013-02-24 06:05:00,
2013-02-23 23:10:00,28.1,17.8,30.16,WNW,293,0.0,0.0,65,0.00,CLR,SKC,0.00,WeatherDisplay:10.37,2013-02-24 06:10:00,
2013-02-23 23:15:00,27.9,18.4,30.16,WNW,293,0.0,0.0,67,0.00,CLR,SKC,0.00,WeatherDisplay:10.37,2013-02-24 06:15:00,
2013-02-23 23:20:00,27.7,17.5,30.16,WNW,293,0.0,0.0,65,0.00,CLR,SKC,0.00,WeatherDisplay:10.37,2013-02-24 06:20:00,
2013-02-23 23:25:00,27.6,17.7,30.16,WNW,293,0.0,0.0,66,0.00,CLR,SKC,0.00,WeatherDisplay:10.37,2013-02-24 06:25:00,
2013-02-23 23:31:00,27.3,18.8,30.16,WNW,293,1.1,1.1,70,0.00,CLR,SKC,0.00,WeatherDisplay:10.37,2013-02-24 06:31:00,
2013-02-23 23:36:00,27.2,17.7,30.17,WNW,293,0.0,0.0,67,0.00,CLR,SKC,0.00,WeatherDisplay:10.37,2013-02-24 06:36:00,
2013-02-23 23:41:00,27.5,18.0,30.17,NNW,344,0.0,0.0,67,0.00,CLR,SKC,0.00,WeatherDisplay:10.37,2013-02-24 06:41:00,
2013-02-23 23:46:00,27.5,18.3,30.17,NNW,344,0.0,0.0,68,0.00,CLR,SKC,0.00,WeatherDisplay:10.37,2013-02-24 06:46:00,
2013-02-23 23:52:00,27.4,18.9,30.17,North,355,0.0,0.0,70,0.00,CLR,SKC,0.00,WeatherDisplay:10.37,2013-02-24 06:52:00,
2013-02-23 23:58:00,27.1,18.6,30.17,North,355,0.0,0.0,70,0.00,CLR,SKC,0.00,WeatherDisplay:10.37,2013-02-24 06:58:00,